Ana Sayfa
METAR-TAF:

METAR-TAF

Havaalanları :

Jacksonville Municipal Airport

Jacksonville, Illinois, Amerika Birleşik Devletleri

Enlem: 39-46-27N, Boylam: 090-14-19W, yükseklik: 190 m

Güncel hava durumu gözlemi

Rapor saat 21:55 UTC de 32 dakika önce yapıldı.
Rüzgar güneydan 24 kt ve 31 kt'a kadar ani rüzgarlar
Sıcaklık 31°C
Nem 43%
Basınç 1001 hPa
Görüş mesafesi: 16.1 km
Açık gökyüzü

METAR: KIJX 212155Z AUTO 18024G31KT 10SM CLR 31/17 A2957 RMK AO2 T03110173

Saat: 17:27 (22:27 UTC)


TAF: eksik

4.000'den fazla havaalanı için hava durumu gözlemleri ve tahminleri (METAR ve TAF raporları).

Kullanılabilir istasyonlar harita üzerinde sarı ve kırmızı noktalarla gösterilir.

İstasyonun adını görmek için fareyi noktanın üzerinde gezdirin.

Sonrasında hava gözlem ve tahminlerini görmek için tıklayın.

Haritayı değiştirmek için: yaklaştırmak için siyah artı işaretli yeşil düğmeye ve uzaklaştırmak için de eksi işaretli düğmeye hızla tıklayın; bitişik haritalar için yeşil okları kullanın.


METAR-TAF: